Time;durP1;ratioP1;P1;durP2;ratioP2;P2;SDS_P1;SDS_P2;PMS_P1;PMS_P2;Temp;Humidity;BMP_temperature;BMP_pressure;BME280_temperature;BME280_humidity;BME280_pressure;Samples;Min_cycle;Max_cycle;Signal;HPM_P1;HPM_P2
2023/03/05 00:00:24;;;;;;;3.20;1.20;;;5.50;99.90;;;;;;4999196;28;20059;-42
2023/03/05 00:02:53;;;;;;;2.97;1.50;;;5.50;99.90;;;;;;4999224;28;20029;-43
2023/03/05 00:05:21;;;;;;;5.07;1.85;;;5.50;99.90;;;;;;4995145;28;20097;-43
2023/03/05 00:07:47;;;;;;;6.72;2.03;;;5.50;99.90;;;;;;4999204;28;20410;-43
2023/03/05 00:10:13;;;;;;;4.97;1.60;;;5.50;99.90;;;;;;4999155;28;20477;-43
2023/03/05 00:12:39;;;;;;;3.92;1.95;;;5.60;99.90;;;;;;4999331;28;20038;-42
2023/03/05 00:15:05;;;;;;;4.10;1.58;;;5.50;99.90;;;;;;4998789;28;20022;-42
2023/03/05 00:17:30;;;;;;;2.97;1.77;;;5.60;99.90;;;;;;5000246;28;20030;-42
2023/03/05 00:19:57;;;;;;;3.85;1.80;;;5.50;99.90;;;;;;5000297;28;20033;-43
2023/03/05 00:22:23;;;;;;;5.32;1.90;;;5.50;99.90;;;;;;5003429;28;20087;-43
2023/03/05 00:24:51;;;;;;;5.80;1.70;;;5.50;99.90;;;;;;5002614;28;20026;-43
2023/03/05 00:27:17;;;;;;;7.38;2.15;;;5.50;99.90;;;;;;5001973;28;20045;-42
2023/03/05 00:29:42;;;;;;;6.68;1.90;;;5.50;99.90;;;;;;5003151;28;20018;-43
2023/03/05 00:32:08;;;;;;;8.70;2.00;;;5.50;99.90;;;;;;5001164;28;20045;-43
2023/03/05 00:34:35;;;;;;;6.80;1.75;;;5.50;99.90;;;;;;5001629;28;20038;-42
2023/03/05 00:37:01;;;;;;;6.65;2.10;;;5.50;99.90;;;;;;5002305;28;20107;-42
2023/03/05 00:39:26;;;;;;;5.65;2.17;;;5.50;99.90;;;;;;5002306;28;20801;-44
2023/03/05 00:41:52;;;;;;;7.15;1.85;;;5.50;99.90;;;;;;5002277;28;20026;-42
2023/03/05 00:44:17;;;;;;;4.57;1.75;;;5.50;99.90;;;;;;5001913;28;20081;-42
2023/03/05 00:46:43;;;;;;;4.53;1.77;;;5.50;99.90;;;;;;5002956;28;20497;-42
2023/03/05 00:49:09;;;;;;;3.50;1.60;;;5.50;99.90;;;;;;5002869;28;20351;-42
2023/03/05 00:51:34;;;;;;;9.25;2.60;;;5.60;99.90;;;;;;5002674;28;20080;-42
2023/03/05 00:54:00;;;;;;;8.07;2.83;;;5.60;99.90;;;;;;5001973;28;20033;-43
2023/03/05 00:56:26;;;;;;;5.20;1.80;;;5.60;99.90;;;;;;5001333;28;20521;-42
2023/03/05 00:58:52;;;;;;;4.70;1.90;;;5.60;99.90;;;;;;5003272;28;20022;-43
2023/03/05 01:01:18;;;;;;;8.73;2.28;;;5.70;99.90;;;;;;5001657;28;20025;-43
2023/03/05 01:03:43;;;;;;;7.95;2.40;;;5.70;99.90;;;;;;5002112;28;20146;-43
2023/03/05 01:06:12;;;;;;;5.47;2.03;;;5.70;99.90;;;;;;5002068;28;20022;-43
2023/03/05 01:08:38;;;;;;;3.95;1.65;;;5.70;99.90;;;;;;5003174;28;20080;-43
2023/03/05 01:11:05;;;;;;;7.72;1.92;;;5.70;99.90;;;;;;5002052;28;20076;-43
2023/03/05 01:13:31;;;;;;;7.70;2.25;;;5.60;99.90;;;;;;5003214;28;20073;-44
2023/03/05 01:15:56;;;;;;;6.72;1.70;;;5.60;99.90;;;;;;5002150;28;20100;-42
2023/03/05 01:18:22;;;;;;;4.97;1.63;;;5.60;99.90;;;;;;5002475;28;20168;-43
2023/03/05 01:20:48;;;;;;;6.32;1.60;;;5.50;99.90;;;;;;5003230;28;20049;-43
2023/03/05 01:23:14;;;;;;;4.07;1.50;;;5.50;99.90;;;;;;5001533;28;20022;-43
2023/03/05 01:25:40;;;;;;;4.65;1.70;;;5.50;99.90;;;;;;5002056;28;20026;-44
2023/03/05 01:28:06;;;;;;;6.28;1.73;;;5.50;99.90;;;;;;5001781;28;20022;-42
2023/03/05 01:30:32;;;;;;;4.22;1.50;;;5.50;99.90;;;;;;5002046;28;20026;-42
2023/03/05 01:32:58;;;;;;;3.65;1.50;;;5.50;99.90;;;;;;5000649;28;20030;-42
2023/03/05 01:35:25;;;;;;;4.13;1.50;;;5.60;99.90;;;;;;5002235;28;20528;-42
2023/03/05 01:37:51;;;;;;;4.47;1.52;;;5.60;99.90;;;;;;5001637;28;20033;-43
2023/03/05 01:40:23;;;;;;;6.25;1.83;;;5.50;99.90;;;;;;5000965;28;20079;-43
2023/03/05 01:43:05;;;;;;;3.40;1.60;;;5.50;99.90;;;;;;5000640;28;20022;-43
2023/03/05 01:45:31;;;;;;;5.22;1.60;;;5.60;99.90;;;;;;4981377;28;20117;-43
2023/03/05 01:47:57;;;;;;;8.52;2.28;;;5.50;99.90;;;;;;4996644;28;20032;-42
2023/03/05 01:50:26;;;;;;;3.88;1.35;;;5.50;99.90;;;;;;5000819;28;20033;-43
2023/03/05 01:53:01;;;;;;;4.10;1.38;;;5.50;99.90;;;;;;5001404;28;20092;-42
2023/03/05 01:55:29;;;;;;;3.45;1.40;;;5.50;99.90;;;;;;5001415;28;20053;-43
2023/03/05 01:58:03;;;;;;;2.95;1.33;;;5.50;99.90;;;;;;5001637;28;20032;-43
2023/03/05 02:00:47;;;;;;;6.20;1.45;;;5.50;99.90;;;;;;5001954;28;20025;-43
2023/03/05 02:03:13;;;;;;;3.47;1.30;;;5.40;99.90;;;;;;5001194;28;20032;-42
2023/03/05 02:05:43;;;;;;;3.95;1.60;;;5.40;99.90;;;;;;5001803;28;20026;-41
2023/03/05 02:08:12;;;;;;;4.28;1.40;;;5.40;99.90;;;;;;5000443;28;20029;-43
2023/03/05 02:10:42;;;;;;;2.75;1.45;;;5.40;99.90;;;;;;5001824;28;20021;-42
2023/03/05 02:13:10;;;;;;;3.38;1.30;;;5.40;99.90;;;;;;4999905;28;20038;-43
2023/03/05 02:15:37;;;;;;;5.38;1.40;;;5.40;99.90;;;;;;5001802;28;20141;-43
2023/03/05 02:18:03;;;;;;;2.75;1.10;;;5.30;99.90;;;;;;5000880;28;20028;-44
2023/03/05 02:20:42;;;;;;;4.22;1.60;;;5.30;99.90;;;;;;5001177;28;20026;-43
2023/03/05 02:23:07;;;;;;;4.63;1.42;;;5.30;99.90;;;;;;5000447;28;20033;-43
2023/03/05 02:25:33;;;;;;;4.50;1.35;;;5.30;99.90;;;;;;5001486;28;20030;-43
2023/03/05 02:28:07;;;;;;;6.25;1.60;;;5.30;99.90;;;;;;5000740;28;20024;-42
2023/03/05 02:30:34;;;;;;;3.92;1.42;;;5.30;99.90;;;;;;5001785;28;20109;-43
2023/03/05 02:33:00;;;;;;;6.35;1.40;;;5.30;99.90;;;;;;5000853;28;20033;-43
2023/03/05 02:35:25;;;;;;;4.38;1.42;;;5.30;99.90;;;;;;5000401;28;20017;-42
2023/03/05 02:37:51;;;;;;;4.72;1.40;;;5.30;99.90;;;;;;5001255;28;20033;-42
2023/03/05 02:40:26;;;;;;;5.60;1.65;;;5.30;99.90;;;;;;4999434;28;20033;-43
2023/03/05 02:42:52;;;;;;;4.95;1.42;;;5.30;99.90;;;;;;5000329;28;20034;-43
2023/03/05 02:45:18;;;;;;;4.85;1.52;;;5.30;99.90;;;;;;4999632;28;20133;-41
2023/03/05 02:47:44;;;;;;;5.40;1.50;;;5.30;99.90;;;;;;5000729;28;20044;-43
2023/03/05 02:50:10;;;;;;;6.25;1.92;;;5.30;99.90;;;;;;4999439;28;20026;-43
2023/03/05 02:52:36;;;;;;;4.55;1.35;;;5.30;99.90;;;;;;4980371;28;20129;-43
2023/03/05 02:55:02;;;;;;;3.95;1.48;;;5.30;99.90;;;;;;4992832;28;20470;-43
2023/03/05 02:57:31;;;;;;;4.10;1.85;;;5.30;99.90;;;;;;4999158;28;20030;-43
2023/03/05 02:59:56;;;;;;;7.63;1.90;;;5.30;99.90;;;;;;5000168;28;20378;-43
2023/03/05 03:02:22;;;;;;;6.95;1.85;;;5.30;99.90;;;;;;4999834;28;20034;-43
2023/03/05 03:04:51;;;;;;;5.13;1.77;;;5.30;99.90;;;;;;5000663;28;20052;-43
2023/03/05 03:07:16;;;;;;;4.55;1.60;;;5.30;99.90;;;;;;5000303;28;20044;-42
2023/03/05 03:09:42;;;;;;;5.57;1.73;;;5.30;99.90;;;;;;5000162;28;20030;-43
2023/03/05 03:12:10;;;;;;;4.38;1.70;;;5.20;99.90;;;;;;4999151;28;20080;-43
2023/03/05 03:14:38;;;;;;;4.20;1.90;;;5.20;99.90;;;;;;5000374;28;20036;-41
2023/03/05 03:17:15;;;;;;;5.80;2.00;;;5.20;99.90;;;;;;4998970;28;20030;-42
2023/03/05 03:19:45;;;;;;;4.07;1.83;;;5.20;99.90;;;;;;4999997;28;20028;-43
2023/03/05 03:22:12;;;;;;;4.38;1.70;;;5.20;99.90;;;;;;4998758;28;20832;-43
2023/03/05 03:24:43;;;;;;;4.75;1.80;;;5.20;99.90;;;;;;4999663;28;20026;-42
2023/03/05 03:27:09;;;;;;;3.78;1.63;;;5.20;99.90;;;;;;4999824;28;20048;-43
2023/03/05 03:29:35;;;;;;;4.47;1.48;;;5.20;99.90;;;;;;5000711;28;20398;-42
2023/03/05 03:32:00;;;;;;;5.85;1.90;;;5.20;99.90;;;;;;4998932;28;20072;-43
2023/03/05 03:34:26;;;;;;;4.07;1.50;;;5.20;99.90;;;;;;4999430;28;20044;-42
2023/03/05 03:36:53;;;;;;;5.95;2.03;;;5.20;99.90;;;;;;5000129;28;20026;-42
2023/03/05 03:39:21;;;;;;;6.05;1.92;;;5.20;99.90;;;;;;4999557;28;20061;-43
2023/03/05 03:41:49;;;;;;;6.68;2.38;;;5.20;99.90;;;;;;5000202;28;20037;-43
2023/03/05 03:44:17;;;;;;;4.18;2.28;;;5.20;99.90;;;;;;4999305;28;20026;-43
2023/03/05 03:46:45;;;;;;;6.00;1.80;;;5.10;99.90;;;;;;5000348;28;20060;-43
2023/03/05 03:49:14;;;;;;;4.55;1.83;;;5.10;99.90;;;;;;4999339;28;20057;-43
2023/03/05 03:51:40;;;;;;;4.72;2.15;;;5.20;99.90;;;;;;4999614;28;20034;-42
2023/03/05 03:54:05;;;;;;;6.35;2.20;;;5.20;99.90;;;;;;5000428;28;20025;-43
2023/03/05 03:56:31;;;;;;;4.03;1.70;;;5.20;99.90;;;;;;5006153;28;20054;-43
2023/03/05 03:58:57;;;;;;;6.07;2.20;;;5.20;99.90;;;;;;5005573;28;20083;-42
2023/03/05 04:01:22;;;;;;;4.95;2.10;;;5.10;99.90;;;;;;5005026;28;20109;-43
2023/03/05 04:03:50;;;;;;;4.95;2.28;;;5.10;99.90;;;;;;5005557;28;20053;-43
2023/03/05 04:06:16;;;;;;;6.25;2.33;;;5.10;99.90;;;;;;5004556;28;20557;-42
2023/03/05 04:08:42;;;;;;;5.85;2.53;;;5.10;99.90;;;;;;5006215;28;20469;-44
2023/03/05 04:11:07;;;;;;;5.10;2.05;;;5.10;99.90;;;;;;5005517;28;20104;-43
2023/03/05 04:13:39;;;;;;;6.88;2.40;;;5.10;99.90;;;;;;5005477;28;20999;-43
2023/03/05 04:16:05;;;;;;;8.32;2.40;;;5.10;99.90;;;;;;5005680;28;20045;-43
2023/03/05 04:18:30;;;;;;;5.07;2.45;;;5.10;99.90;;;;;;5005862;28;20026;-43
2023/03/05 04:20:56;;;;;;;4.90;2.05;;;5.10;99.90;;;;;;5005338;28;20092;-43
2023/03/05 04:23:22;;;;;;;6.00;2.10;;;5.10;99.90;;;;;;5004637;28;20038;-43
2023/03/05 04:25:47;;;;;;;6.63;2.22;;;5.10;99.90;;;;;;5006913;28;20046;-43
2023/03/05 04:28:13;;;;;;;5.93;1.90;;;5.10;99.90;;;;;;5004751;28;20033;-41
2023/03/05 04:30:38;;;;;;;5.57;2.10;;;5.10;99.90;;;;;;5005827;28;20022;-42
2023/03/05 04:33:04;;;;;;;4.10;1.95;;;5.10;99.90;;;;;;5004967;28;20038;-43
2023/03/05 04:35:29;;;;;;;5.20;2.28;;;5.10;99.90;;;;;;5005443;28;20033;-43
2023/03/05 04:37:55;;;;;;;5.50;2.28;;;5.10;99.90;;;;;;5005554;28;20048;-43
2023/03/05 04:40:20;;;;;;;4.30;1.98;;;5.10;99.90;;;;;;5005073;28;20113;-43
2023/03/05 04:42:46;;;;;;;4.20;1.65;;;5.00;99.90;;;;;;5006052;28;20034;-42
2023/03/05 04:45:18;;;;;;;4.15;1.40;;;5.00;99.90;;;;;;5005235;28;20025;-47
2023/03/05 04:47:43;;;;;;;2.80;1.83;;;5.10;99.90;;;;;;5005824;28;20026;-42
2023/03/05 04:50:11;;;;;;;4.93;1.63;;;5.10;99.90;;;;;;5005996;28;20092;-43
2023/03/05 04:52:44;;;;;;;3.67;1.85;;;5.00;99.90;;;;;;5005665;28;20057;-43
2023/03/05 04:55:12;;;;;;;8.52;1.55;;;5.00;99.90;;;;;;5005497;28;20049;-44
2023/03/05 04:57:38;;;;;;;3.83;1.60;;;5.10;99.90;;;;;;5006297;28;20040;-43
2023/03/05 05:00:06;;;;;;;3.25;1.60;;;5.00;99.90;;;;;;5004873;28;20672;-43
2023/03/05 05:02:33;;;;;;;4.43;1.50;;;5.00;99.90;;;;;;5005754;28;20116;-43
2023/03/05 05:04:58;;;;;;;3.92;1.40;;;5.00;99.90;;;;;;5005343;28;20026;-43
2023/03/05 05:07:24;;;;;;;2.92;1.17;;;5.10;99.90;;;;;;5001789;28;20382;-43
2023/03/05 05:09:53;;;;;;;6.25;1.80;;;5.10;99.90;;;;;;5001991;28;20018;-43
2023/03/05 05:12:21;;;;;;;3.63;1.50;;;5.10;99.90;;;;;;4980746;28;20042;-45
2023/03/05 05:14:50;;;;;;;4.70;1.33;;;5.00;99.90;;;;;;4996715;28;20040;-43
2023/03/05 05:17:18;;;;;;;4.43;1.80;;;5.00;99.90;;;;;;5001183;28;20145;-43
2023/03/05 05:19:44;;;;;;;3.30;1.50;;;5.00;99.90;;;;;;5001875;28;20071;-43
2023/03/05 05:22:10;;;;;;;3.08;1.80;;;5.00;99.90;;;;;;5001272;28;20863;-41
2023/03/05 05:24:35;;;;;;;5.28;1.77;;;5.00;99.90;;;;;;5002231;28;20034;-43
2023/03/05 05:27:03;;;;;;;3.25;1.33;;;5.00;99.90;;;;;;5002484;28;20026;-42
2023/03/05 05:29:29;;;;;;;3.25;1.45;;;5.00;99.90;;;;;;5001593;28;20026;-42
2023/03/05 05:31:55;;;;;;;6.93;1.70;;;5.00;99.90;;;;;;5001544;28;21224;-43
2023/03/05 05:34:27;;;;;;;3.30;1.45;;;5.00;99.90;;;;;;5001128;28;20026;-43
2023/03/05 05:36:52;;;;;;;1.90;1.20;;;5.00;99.90;;;;;;4991930;28;20083;-43
2023/03/05 05:39:18;;;;;;;4.53;1.35;;;5.00;99.90;;;;;;5001725;28;20295;-43
2023/03/05 05:41:51;;;;;;;2.90;1.20;;;5.00;99.90;;;;;;5002190;28;20144;-43
2023/03/05 05:44:16;;;;;;;;;;;5.00;99.90;;;;;;5001076;28;20553;-42
2023/03/05 05:46:42;;;;;;;2.13;1.27;;;5.00;99.90;;;;;;5002822;28;19909;-43
2023/03/05 05:49:08;;;;;;;3.72;1.55;;;5.00;99.90;;;;;;5001454;28;20679;-43
2023/03/05 05:51:33;;;;;;;2.25;1.30;;;5.00;99.90;;;;;;5000808;28;20117;-43
2023/03/05 05:53:59;;;;;;;2.75;1.20;;;4.90;99.90;;;;;;5002495;28;20026;-43
2023/03/05 05:56:24;;;;;;;4.53;1.25;;;4.90;99.90;;;;;;5001324;28;20584;-42
2023/03/05 05:58:50;;;;;;;2.85;1.27;;;4.90;99.90;;;;;;4981606;28;20761;-43
2023/03/05 06:01:24;;;;;;;2.67;1.23;;;4.90;99.90;;;;;;4995102;28;20112;-44
2023/03/05 06:03:50;;;;;;;2.67;1.60;;;4.90;99.90;;;;;;5001875;28;20120;-43
2023/03/05 06:06:21;;;;;;;2.75;1.13;;;4.90;99.90;;;;;;5000490;28;20022;-43
2023/03/05 06:08:47;;;;;;;6.63;1.30;;;4.80;99.90;;;;;;5002056;28;20038;-43
2023/03/05 06:11:12;;;;;;;5.03;1.50;;;4.80;99.90;;;;;;5000587;28;20136;-43
2023/03/05 06:13:38;;;;;;;3.08;1.40;;;4.80;99.90;;;;;;5001523;28;20567;-43
2023/03/05 06:16:08;;;;;;;4.88;1.52;;;4.80;99.90;;;;;;5000846;28;20026;-44
2023/03/05 06:18:34;;;;;;;4.85;1.45;;;4.80;99.90;;;;;;4999712;28;20053;-43
2023/03/05 06:21:05;;;;;;;2.08;1.17;;;4.80;99.90;;;;;;5000098;28;20369;-44
2023/03/05 06:23:31;;;;;;;2.75;1.20;;;4.80;99.90;;;;;;5000750;28;20033;-43
2023/03/05 06:25:59;;;;;;;4.43;1.60;;;4.80;99.90;;;;;;4999951;28;20022;-43
2023/03/05 06:28:24;;;;;;;2.47;1.30;;;4.80;99.90;;;;;;5000910;28;20033;-43
2023/03/05 06:30:50;;;;;;;3.03;1.30;;;4.70;99.90;;;;;;5000673;28;20030;-43
2023/03/05 06:33:16;;;;;;;3.03;1.45;;;4.70;99.90;;;;;;4999787;28;20579;-43
2023/03/05 06:35:42;;;;;;;5.18;1.30;;;4.70;99.90;;;;;;5001928;28;20052;-43
2023/03/05 06:38:11;;;;;;;3.45;1.45;;;4.70;99.90;;;;;;4998875;28;20888;-42
2023/03/05 06:40:38;;;;;;;3.53;1.55;;;4.70;99.90;;;;;;5000142;28;20803;-43
2023/03/05 06:43:04;;;;;;;3.55;1.30;;;4.70;99.90;;;;;;5000347;28;20561;-42
2023/03/05 06:45:29;;;;;;;4.88;1.40;;;4.70;99.90;;;;;;5000487;28;20083;-42
2023/03/05 06:47:55;;;;;;;4.30;1.52;;;4.70;99.90;;;;;;5000178;28;20018;-43
2023/03/05 06:50:20;;;;;;;4.53;1.65;;;4.70;99.90;;;;;;5000367;28;20030;-42
2023/03/05 06:52:48;;;;;;;4.20;1.60;;;4.70;99.90;;;;;;5001330;28;20084;-43
2023/03/05 06:55:14;;;;;;;4.47;1.13;;;4.70;99.90;;;;;;4999808;28;20060;-40
2023/03/05 06:57:43;;;;;;;4.20;1.48;;;4.70;99.90;;;;;;5000776;28;20813;-43
2023/03/05 07:00:10;;;;;;;3.00;1.42;;;4.80;99.90;;;;;;5000580;28;20105;-42
2023/03/05 07:02:37;;;;;;;3.70;1.40;;;4.80;99.90;;;;;;4999851;28;20108;-43
2023/03/05 07:05:03;;;;;;;2.05;1.30;;;4.80;99.90;;;;;;5000048;28;20033;-43
2023/03/05 07:07:29;;;;;;;2.97;1.38;;;4.80;99.90;;;;;;5000883;28;20056;-42
2023/03/05 07:10:00;;;;;;;1.83;1.23;;;4.90;99.90;;;;;;4999952;28;20029;-42
2023/03/05 07:12:29;;;;;;;4.38;1.92;;;4.90;99.90;;;;;;4997004;28;20140;-43
2023/03/05 07:14:54;;;;;;;5.40;1.80;;;4.90;99.90;;;;;;4998227;28;20018;-43
2023/03/05 07:17:20;;;;;;;4.45;2.00;;;5.00;99.90;;;;;;4999597;28;20500;-43
2023/03/05 07:19:46;;;;;;;4.43;1.70;;;5.00;99.90;;;;;;4997674;28;20029;-42
2023/03/05 07:22:11;;;;;;;2.08;1.25;;;5.00;99.90;;;;;;4999238;28;20026;-42
2023/03/05 07:24:39;;;;;;;3.28;1.60;;;5.00;99.90;;;;;;4999398;28;20030;-42
2023/03/05 07:27:08;;;;;;;3.30;1.65;;;5.10;99.90;;;;;;4998678;28;20033;-41
2023/03/05 07:29:33;;;;;;;2.97;1.50;;;5.10;99.90;;;;;;4997843;28;20041;-43
2023/03/05 07:31:59;;;;;;;3.53;1.83;;;5.10;99.90;;;;;;4998818;28;20038;-44
2023/03/05 07:34:24;;;;;;;1.80;1.30;;;5.20;99.90;;;;;;4997903;28;20036;-43
2023/03/05 07:36:51;;;;;;;4.45;1.98;;;5.20;99.90;;;;;;4998757;28;20033;-44
2023/03/05 07:39:18;;;;;;;4.22;1.90;;;5.30;99.90;;;;;;4998854;28;20239;-42
2023/03/05 07:41:44;;;;;;;3.55;1.80;;;5.30;99.90;;;;;;4998949;28;20049;-42
2023/03/05 07:44:10;;;;;;;3.42;1.60;;;5.30;99.90;;;;;;4997658;28;20846;-42
2023/03/05 07:46:38;;;;;;;3.92;1.75;;;5.40;99.90;;;;;;4999654;28;20018;-43
2023/03/05 07:49:04;;;;;;;3.60;1.30;;;5.40;99.90;;;;;;4998437;28;20032;-42
2023/03/05 07:51:30;;;;;;;4.07;1.65;;;5.50;99.90;;;;;;4998922;28;20018;-45
2023/03/05 07:53:57;;;;;;;4.25;2.13;;;5.50;99.90;;;;;;4998855;28;20045;-44
2023/03/05 07:56:44;;;;;;;3.42;1.88;;;5.50;99.90;;;;;;4998912;28;20084;-43
2023/03/05 07:59:14;;;;;;;2.80;1.80;;;5.50;99.90;;;;;;4996853;28;20084;-43
2023/03/05 08:01:45;;;;;;;3.35;1.90;;;5.50;99.90;;;;;;4988168;28;20100;-32
2023/03/05 08:04:13;;;;;;;5.53;2.33;;;5.50;99.90;;;;;;4997958;28;20029;-43
2023/03/05 08:06:40;;;;;;;3.53;2.10;;;5.50;99.90;;;;;;4999996;28;20045;-43
2023/03/05 08:09:06;;;;;;;2.35;1.70;;;5.50;99.90;;;;;;4981929;28;20038;-44
2023/03/05 08:11:32;;;;;;;5.30;2.50;;;5.60;99.90;;;;;;4998170;28;20026;-43
2023/03/05 08:14:00;;;;;;;3.63;2.10;;;5.60;99.90;;;;;;4999696;28;20064;-43
2023/03/05 08:16:26;;;;;;;5.70;2.72;;;5.70;99.90;;;;;;4999396;28;20056;-43
2023/03/05 08:18:56;;;;;;;2.85;1.95;;;5.60;99.90;;;;;;4999529;28;20056;-43
2023/03/05 08:21:32;;;;;;;3.35;1.95;;;5.70;99.90;;;;;;4999201;28;20041;-43
2023/03/05 08:24:08;;;;;;;3.03;2.10;;;5.70;99.90;;;;;;4999267;28;20037;-43
2023/03/05 08:26:37;;;;;;;4.00;2.00;;;5.70;99.90;;;;;;4998348;28;20030;-43
2023/03/05 08:29:03;;;;;;;4.20;2.83;;;5.80;99.90;;;;;;4999415;28;20098;-43
2023/03/05 08:31:30;;;;;;;6.38;2.00;;;5.90;99.90;;;;;;4999634;28;20030;-43
2023/03/05 08:33:58;;;;;;;3.55;1.75;;;5.90;99.90;;;;;;4999425;28;20041;-43
2023/03/05 08:36:24;;;;;;;4.45;2.08;;;6.00;99.90;;;;;;4997923;28;20029;-43
2023/03/05 08:38:50;;;;;;;4.95;2.42;;;6.00;99.90;;;;;;4996705;28;20026;-44
2023/03/05 08:41:17;;;;;;;4.90;2.05;;;6.00;99.90;;;;;;4998461;28;20052;-44
2023/03/05 08:43:42;;;;;;;2.50;1.67;;;6.00;99.90;;;;;;5003227;28;20018;-44
2023/03/05 08:48:56;;;;;;;2.90;1.15;;;6.10;99.90;;;;;;5004041;28;20026;-43
2023/03/05 08:51:27;;;;;;;3.00;1.27;;;6.10;99.90;;;;;;5002516;28;20359;-43
2023/03/05 08:53:54;;;;;;;3.13;1.30;;;6.20;99.90;;;;;;5002867;28;20033;-43
2023/03/05 08:56:27;;;;;;;1.92;1.50;;;6.20;99.90;;;;;;5001460;28;20046;-42
2023/03/05 08:58:53;;;;;;;1.85;1.30;;;6.30;99.90;;;;;;5002156;28;20080;-42
2023/03/05 09:01:19;;;;;;;2.53;1.20;;;6.40;99.90;;;;;;5001813;28;20394;-42
2023/03/05 09:03:44;;;;;;;3.28;1.52;;;6.40;99.90;;;;;;5002520;28;20488;-43
2023/03/05 09:06:11;;;;;;;1.15;0.90;;;6.50;99.90;;;;;;5001804;28;20089;-43
2023/03/05 09:08:39;;;;;;;2.63;1.55;;;6.60;99.90;;;;;;5002266;28;20030;-42
2023/03/05 09:11:07;;;;;;;4.20;1.67;;;6.60;99.90;;;;;;5002257;28;20034;-43
2023/03/05 09:13:33;;;;;;;3.45;1.70;;;6.50;99.90;;;;;;5002412;28;20092;-43
2023/03/05 09:16:04;;;;;;;3.35;1.20;;;6.50;99.90;;;;;;5002687;28;20026;-43
2023/03/05 09:18:31;;;;;;;2.85;1.40;;;6.50;99.90;;;;;;5002261;28;20627;-43
2023/03/05 09:20:56;;;;;;;2.65;1.10;;;6.60;99.90;;;;;;5003214;28;20100;-43
2023/03/05 09:23:22;;;;;;;1.42;1.20;;;6.60;99.90;;;;;;5001952;28;20463;-44
2023/03/05 09:25:49;;;;;;;3.03;1.58;;;6.60;99.90;;;;;;5002792;28;20105;-43
2023/03/05 09:28:15;;;;;;;4.13;1.52;;;6.60;99.90;;;;;;5002346;28;20101;-43
2023/03/05 09:30:41;;;;;;;4.47;1.60;;;6.70;99.90;;;;;;5002149;28;20488;-43
2023/03/05 09:33:07;;;;;;;4.45;1.40;;;6.70;99.90;;;;;;5001568;28;20034;-42
2023/03/05 09:35:36;;;;;;;4.45;1.52;;;6.70;99.90;;;;;;5001606;28;20393;-43
2023/03/05 09:38:02;;;;;;;2.63;1.50;;;6.80;99.90;;;;;;5002132;28;20095;-43
2023/03/05 09:40:56;;;;;;;2.42;1.20;;;6.80;99.90;;;;;;5001791;28;20029;-43
2023/03/05 09:43:48;;;;;;;3.97;1.40;;;6.80;99.90;;;;;;5001729;28;20034;-43
2023/03/05 09:46:34;;;;;;;2.20;1.53;;;6.90;99.90;;;;;;5001023;28;20441;-43
2023/03/05 09:49:36;;;;;;;2.50;1.30;;;7.00;99.90;;;;;;4989475;28;21114;-43
2023/03/05 09:52:13;;;;;;;3.25;1.60;;;7.00;99.90;;;;;;4994694;28;20049;-44
2023/03/05 09:54:42;;;;;;;3.30;1.40;;;7.00;99.90;;;;;;4997453;28;20054;-42
2023/03/05 09:57:17;;;;;;;3.88;1.50;;;6.90;99.90;;;;;;4998478;28;20125;-42
2023/03/05 10:00:07;;;;;;;2.13;1.40;;;6.90;99.90;;;;;;4997137;28;20033;-42
2023/03/05 10:02:36;;;;;;;1.83;1.20;;;6.80;99.90;;;;;;4998785;28;20038;-43
2023/03/05 10:05:15;;;;;;;2.38;1.38;;;6.90;99.90;;;;;;4998177;28;20045;-40
2023/03/05 10:07:44;;;;;;;2.53;1.73;;;7.00;99.90;;;;;;4998544;28;20040;-41
2023/03/05 10:10:22;;;;;;;4.35;1.70;;;7.00;99.90;;;;;;4997451;28;20668;-42
2023/03/05 10:12:52;;;;;;;5.47;2.00;;;7.00;99.90;;;;;;4997961;28;20049;-43
2023/03/05 10:16:02;;;;;;;1.58;1.10;;;7.00;99.90;;;;;;4997727;28;20208;-42
2023/03/05 10:18:50;;;;;;;2.50;1.25;;;7.10;99.90;;;;;;4914797;29;20036;-43
2023/03/05 10:22:05;;;;;;;1.92;1.08;;;7.10;99.90;;;;;;4998351;28;20025;-43
2023/03/05 10:24:40;;;;;;;2.10;1.20;;;7.10;99.90;;;;;;4922157;28;20044;-43
2023/03/05 10:27:19;;;;;;;2.85;1.17;;;7.10;99.90;;;;;;4994687;28;20029;-43
2023/03/05 10:30:09;;;;;;;4.57;1.50;;;7.30;99.90;;;;;;4997226;28;20052;-43
2023/03/05 10:32:56;;;;;;;2.13;1.20;;;7.30;99.90;;;;;;4994671;28;20124;-42
2023/03/05 10:35:38;;;;;;;3.25;1.33;;;7.40;99.90;;;;;;4996117;28;20648;-43
2023/03/05 10:38:11;;;;;;;1.42;0.90;;;7.40;99.90;;;;;;4998017;28;20076;-42
2023/03/05 10:40:58;;;;;;;2.33;1.05;;;7.50;99.90;;;;;;4997543;28;20030;-42
2023/03/05 10:43:23;;;;;;;1.35;1.00;;;7.40;99.90;;;;;;4997480;28;20048;-42
2023/03/05 10:45:51;;;;;;;2.65;0.90;;;7.40;99.90;;;;;;4997935;28;20022;-43
2023/03/05 10:48:51;;;;;;;1.23;1.00;;;7.40;99.90;;;;;;4997393;28;20575;-43
2023/03/05 10:51:47;;;;;;;2.30;1.25;;;7.40;99.90;;;;;;4953061;28;20041;-43
2023/03/05 10:54:29;;;;;;;1.80;1.10;;;7.40;99.90;;;;;;4996039;28;20088;-42
2023/03/05 10:57:25;;;;;;;2.38;1.15;;;7.50;99.90;;;;;;4976965;28;20715;-43
2023/03/05 11:00:06;;;;;;;1.58;0.98;;;7.60;99.90;;;;;;4976704;28;20061;-43
2023/03/05 11:02:33;;;;;;;1.52;0.90;;;7.60;99.90;;;;;;4968187;28;20595;-44
2023/03/05 11:04:58;;;;;;;2.45;1.23;;;7.60;99.90;;;;;;4976214;28;20041;-44
2023/03/05 11:07:24;;;;;;;2.03;0.90;;;7.60;99.90;;;;;;4980572;28;20031;-42
2023/03/05 11:10:14;;;;;;;2.20;1.05;;;7.70;99.90;;;;;;4977923;28;20065;-43
2023/03/05 11:12:40;;;;;;;5.63;1.25;;;7.70;99.90;;;;;;4962912;28;20057;-43
2023/03/05 11:15:26;;;;;;;3.30;1.40;;;7.70;99.90;;;;;;4977001;28;20034;-43
2023/03/05 11:18:18;;;;;;;1.40;0.80;;;7.70;99.90;;;;;;4975582;28;20107;-43
2023/03/05 11:20:43;;;;;;;0.95;0.80;;;7.80;99.90;;;;;;4977576;28;20434;-42
2023/03/05 11:23:17;;;;;;;2.13;0.85;;;8.00;99.90;;;;;;4976983;28;20014;-42
2023/03/05 11:26:10;;;;;;;1.75;1.00;;;8.10;99.90;;;;;;4977969;28;20030;-44
2023/03/05 11:28:55;;;;;;;2.95;1.00;;;8.10;99.90;;;;;;4976795;28;20034;-43
2023/03/05 11:31:27;;;;;;;1.88;1.10;;;8.20;99.90;;;;;;4977902;28;20025;-43
2023/03/05 11:33:55;;;;;;;2.47;0.93;;;8.30;99.90;;;;;;4975254;28;20045;-47
2023/03/05 11:36:23;;;;;;;3.55;1.17;;;8.30;99.90;;;;;;4978025;28;20030;-43
2023/03/05 11:38:58;;;;;;;1.85;0.80;;;8.40;99.90;;;;;;4978267;28;20077;-43
2023/03/05 11:41:54;;;;;;;2.20;1.00;;;8.50;99.90;;;;;;4975230;28;20022;-43
2023/03/05 11:44:49;;;;;;;2.22;1.00;;;8.60;99.90;;;;;;4969138;28;20093;-42
2023/03/05 11:47:46;;;;;;;3.35;1.02;;;8.70;99.90;;;;;;4977198;28;20034;-42
2023/03/05 11:50:14;;;;;;;3.25;0.90;;;8.80;99.90;;;;;;4977249;28;20122;-43
2023/03/05 11:52:49;;;;;;;4.50;0.93;;;8.80;99.90;;;;;;4977405;28;20101;-43
2023/03/05 11:55:23;;;;;;;2.05;0.90;;;8.80;99.90;;;;;;4985428;28;20052;-44
2023/03/05 11:58:29;;;;;;;2.53;0.90;;;8.70;99.90;;;;;;5004587;28;20017;-42
2023/03/05 12:00:55;;;;;;;1.35;0.80;;;8.50;99.90;;;;;;5006311;28;20426;-43
2023/03/05 12:03:25;;;;;;;1.17;1.00;;;8.50;99.90;;;;;;5001726;28;20034;-42
2023/03/05 12:05:55;;;;;;;1.20;0.90;;;8.50;99.90;;;;;;5011263;28;20033;-42
2023/03/05 12:08:29;;;;;;;1.40;1.00;;;8.50;99.90;;;;;;5007562;28;20049;-43
2023/03/05 12:10:56;;;;;;;1.63;0.70;;;8.40;99.90;;;;;;4998188;28;20034;-44
2023/03/05 12:13:30;;;;;;;2.05;0.70;;;8.50;99.90;;;;;;5004744;28;20445;-42
2023/03/05 12:16:27;;;;;;;2.08;0.93;;;8.50;99.90;;;;;;5002084;28;20549;-43
2023/03/05 12:19:27;;;;;;;2.35;1.17;;;8.50;99.90;;;;;;5002533;28;20029;-42
2023/03/05 12:21:54;;;;;;;2.60;1.00;;;8.50;99.90;;;;;;5016007;28;20479;-42
2023/03/05 12:24:25;;;;;;;2.42;1.05;;;8.40;99.90;;;;;;5001800;28;20034;-42
2023/03/05 12:27:02;;;;;;;1.02;0.93;;;8.40;99.90;;;;;;4997786;28;20202;-43
2023/03/05 12:29:40;;;;;;;2.47;1.05;;;8.40;99.90;;;;;;5001920;28;20145;-43
2023/03/05 12:32:31;;;;;;;1.30;0.95;;;8.50;99.90;;;;;;5010674;28;20041;-43
2023/03/05 12:34:57;;;;;;;1.67;1.05;;;8.40;99.90;;;;;;5005962;28;20030;-44
2023/03/05 12:37:22;;;;;;;2.05;1.15;;;8.50;99.90;;;;;;5007584;28;20772;-41
2023/03/05 12:40:11;;;;;;;1.75;1.00;;;8.50;99.90;;;;;;5008549;28;20386;-43
2023/03/05 12:42:36;;;;;;;3.80;1.40;;;8.50;99.90;;;;;;4999679;28;20038;-43
2023/03/05 12:45:11;;;;;;;2.17;1.10;;;8.40;99.90;;;;;;5007282;28;20028;-43
2023/03/05 12:47:38;;;;;;;1.73;0.80;;;8.30;99.90;;;;;;5012403;28;20045;-44
2023/03/05 12:50:04;;;;;;;1.75;1.00;;;8.30;99.90;;;;;;5012465;28;20752;-43
2023/03/05 12:52:32;;;;;;;1.90;1.05;;;8.30;99.90;;;;;;5013978;28;20144;-43
2023/03/05 12:55:19;;;;;;;2.13;0.82;;;8.30;99.90;;;;;;5003849;28;20053;-44
2023/03/05 12:57:46;;;;;;;2.55;0.90;;;8.40;99.90;;;;;;5015972;28;21046;-43
2023/03/05 13:00:25;;;;;;;1.67;0.70;;;8.40;99.90;;;;;;4999182;28;20022;-42
2023/03/05 13:02:56;;;;;;;3.17;0.90;;;8.30;99.90;;;;;;5001024;28;20144;-42
2023/03/05 13:05:31;;;;;;;1.73;0.70;;;8.30;99.90;;;;;;5000089;28;20030;-43
2023/03/05 13:08:12;;;;;;;1.23;0.77;;;8.30;99.90;;;;;;4997938;28;20026;-42
2023/03/05 13:10:38;;;;;;;1.83;0.80;;;8.30;99.90;;;;;;5000309;28;20048;-43
2023/03/05 13:13:11;;;;;;;2.92;0.80;;;8.30;99.90;;;;;;4999458;28;20034;-44
2023/03/05 13:15:37;;;;;;;2.05;0.82;;;8.30;99.90;;;;;;4999840;28;20577;-44